sensor_id;sensor_type;location;lat;lon;timestamp;pressure;altitude;pressure_sealevel;temperature;humidity
11415;BME280;5763;42.714;23.244;2022-09-13T00:01:03;94433.16;;;16.45;69.59
11415;BME280;5763;42.714;23.244;2022-09-13T00:03:30;94430.88;;;16.43;69.71
11415;BME280;5763;42.714;23.244;2022-09-13T00:05:57;94429.44;;;16.53;69.66
11415;BME280;5763;42.714;23.244;2022-09-13T00:08:27;94419.34;;;16.50;69.64
11415;BME280;5763;42.714;23.244;2022-09-13T00:10:54;94420.41;;;16.58;69.42
11415;BME280;5763;42.714;23.244;2022-09-13T00:13:21;94419.66;;;16.58;69.24
11415;BME280;5763;42.714;23.244;2022-09-13T00:15:48;94424.97;;;16.62;69.13
11415;BME280;5763;42.714;23.244;2022-09-13T00:18:17;94418.69;;;16.61;69.41
11415;BME280;5763;42.714;23.244;2022-09-13T00:20:44;94402.69;;;16.34;69.66
11415;BME280;5763;42.714;23.244;2022-09-13T00:23:11;94406.38;;;16.62;69.47
11415;BME280;5763;42.714;23.244;2022-09-13T00:25:40;94397.59;;;16.69;69.28
11415;BME280;5763;42.714;23.244;2022-09-13T00:28:06;94403.41;;;16.71;69.15
11415;BME280;5763;42.714;23.244;2022-09-13T00:30:33;94404.66;;;16.70;69.10
11415;BME280;5763;42.714;23.244;2022-09-13T00:33:00;94407.38;;;16.64;69.38
11415;BME280;5763;42.714;23.244;2022-09-13T00:35:29;94398.84;;;16.63;69.53
11415;BME280;5763;42.714;23.244;2022-09-13T00:37:58;94399.81;;;16.59;70.01
11415;BME280;5763;42.714;23.244;2022-09-13T00:40:25;94405.84;;;16.58;70.15
11415;BME280;5763;42.714;23.244;2022-09-13T00:42:53;94393.78;;;16.55;70.13
11415;BME280;5763;42.714;23.244;2022-09-13T00:45:20;94393.03;;;16.60;69.97
11415;BME280;5763;42.714;23.244;2022-09-13T00:47:50;94392.31;;;16.60;70.19
11415;BME280;5763;42.714;23.244;2022-09-13T00:50:21;94393.81;;;16.66;70.15
11415;BME280;5763;42.714;23.244;2022-09-13T00:52:54;94390.06;;;16.64;69.93
11415;BME280;5763;42.714;23.244;2022-09-13T00:55:25;94385.28;;;16.64;70.07
11415;BME280;5763;42.714;23.244;2022-09-13T00:57:58;94387.50;;;16.60;70.08
11415;BME280;5763;42.714;23.244;2022-09-13T01:00:26;94391.81;;;16.62;70.34
11415;BME280;5763;42.714;23.244;2022-09-13T01:02:56;94381.25;;;16.65;70.23
11415;BME280;5763;42.714;23.244;2022-09-13T01:05:28;94368.44;;;16.63;69.67
11415;BME280;5763;42.714;23.244;2022-09-13T01:07:56;94382.03;;;16.71;69.66
11415;BME280;5763;42.714;23.244;2022-09-13T01:10:24;94385.81;;;16.68;70.31
11415;BME280;5763;42.714;23.244;2022-09-13T01:12:57;94385.03;;;16.63;70.40
11415;BME280;5763;42.714;23.244;2022-09-13T01:15:26;94384.75;;;16.60;70.88
11415;BME280;5763;42.714;23.244;2022-09-13T01:17:53;94385.75;;;16.58;71.12
11415;BME280;5763;42.714;23.244;2022-09-13T01:20:27;94380.47;;;16.54;71.19
11415;BME280;5763;42.714;23.244;2022-09-13T01:23:21;94382.22;;;16.52;71.38
11415;BME280;5763;42.714;23.244;2022-09-13T01:32:12;94372.94;;;16.54;71.43
11415;BME280;5763;42.714;23.244;2022-09-13T01:34:50;94372.41;;;16.50;71.25
11415;BME280;5763;42.714;23.244;2022-09-13T01:37:34;94375.69;;;16.54;71.20
11415;BME280;5763;42.714;23.244;2022-09-13T01:40:09;94373.94;;;16.52;71.46
11415;BME280;5763;42.714;23.244;2022-09-13T01:42:52;94377.00;;;16.64;71.11
11415;BME280;5763;42.714;23.244;2022-09-13T01:45:28;94366.66;;;16.59;71.35
11415;BME280;5763;42.714;23.244;2022-09-13T01:48:06;94366.19;;;16.61;70.88
11415;BME280;5763;42.714;23.244;2022-09-13T01:50:38;94370.72;;;16.64;70.69
11415;BME280;5763;42.714;23.244;2022-09-13T01:53:13;94361.19;;;16.65;70.58
11415;BME280;5763;42.714;23.244;2022-09-13T01:55:47;94367.44;;;16.65;70.64
11415;BME280;5763;42.714;23.244;2022-09-13T01:58:21;94367.97;;;16.64;70.63
11415;BME280;5763;42.714;23.244;2022-09-13T02:00:55;94357.66;;;16.64;70.45
11415;BME280;5763;42.714;23.244;2022-09-13T02:03:31;94366.25;;;16.77;69.98
11415;BME280;5763;42.714;23.244;2022-09-13T02:06:02;94361.72;;;16.74;69.88
11415;BME280;5763;42.714;23.244;2022-09-13T02:08:36;94367.22;;;16.74;70.18
11415;BME280;5763;42.714;23.244;2022-09-13T02:11:08;94362.94;;;16.68;69.97
11415;BME280;5763;42.714;23.244;2022-09-13T02:13:39;94357.41;;;16.68;69.61
11415;BME280;5763;42.714;23.244;2022-09-13T02:16:10;94361.44;;;16.67;70.02
11415;BME280;5763;42.714;23.244;2022-09-13T02:18:42;94371.22;;;16.63;69.98
11415;BME280;5763;42.714;23.244;2022-09-13T02:21:13;94354.84;;;16.53;69.96
11415;BME280;5763;42.714;23.244;2022-09-13T02:23:46;94360.91;;;16.63;69.69
11415;BME280;5763;42.714;23.244;2022-09-13T02:26:14;94368.41;;;16.57;69.86
11415;BME280;5763;42.714;23.244;2022-09-13T02:28:44;94363.38;;;16.50;70.55
11415;BME280;5763;42.714;23.244;2022-09-13T02:31:15;94355.31;;;16.47;70.50
11415;BME280;5763;42.714;23.244;2022-09-13T02:33:50;94374.66;;;16.47;70.05
11415;BME280;5763;42.714;23.244;2022-09-13T02:36:22;94369.59;;;16.39;70.07
11415;BME280;5763;42.714;23.244;2022-09-13T02:38:52;94368.84;;;16.44;70.21
11415;BME280;5763;42.714;23.244;2022-09-13T02:41:24;94369.59;;;16.39;70.05
11415;BME280;5763;42.714;23.244;2022-09-13T02:43:58;94368.25;;;16.29;70.63
11415;BME280;5763;42.714;23.244;2022-09-13T02:46:37;94374.00;;;16.26;70.63
11415;BME280;5763;42.714;23.244;2022-09-13T02:49:13;94373.25;;;16.25;71.12
11415;BME280;5763;42.714;23.244;2022-09-13T02:51:50;94368.72;;;16.22;70.68
11415;BME280;5763;42.714;23.244;2022-09-13T02:54:24;94380.25;;;16.15;71.27
11415;BME280;5763;42.714;23.244;2022-09-13T02:56:57;94377.47;;;16.15;71.42
11415;BME280;5763;42.714;23.244;2022-09-13T02:59:24;94363.16;;;16.17;71.13
11415;BME280;5763;42.714;23.244;2022-09-13T03:01:55;94361.13;;;16.12;71.16
11415;BME280;5763;42.714;23.244;2022-09-13T03:04:25;94373.41;;;16.11;71.14
11415;BME280;5763;42.714;23.244;2022-09-13T03:06:52;94381.44;;;16.09;71.24
11415;BME280;5763;42.714;23.244;2022-09-13T03:09:19;94373.66;;;16.07;71.50
11415;BME280;5763;42.714;23.244;2022-09-13T03:12:01;94373.66;;;16.07;71.36
11415;BME280;5763;42.714;23.244;2022-09-13T03:14:42;94370.94;;;16.13;70.95
11415;BME280;5763;42.714;23.244;2022-09-13T03:17:28;94367.41;;;16.12;71.03
11415;BME280;5763;42.714;23.244;2022-09-13T03:20:20;94372.69;;;16.16;70.74
11415;BME280;5763;42.714;23.244;2022-09-13T03:23:21;94367.91;;;16.11;71.01
11415;BME280;5763;42.714;23.244;2022-09-13T03:26:02;94369.91;;;16.10;70.48
11415;BME280;5763;42.714;23.244;2022-09-13T03:28:38;94364.59;;;16.01;71.30
11415;BME280;5763;42.714;23.244;2022-09-13T03:31:12;94369.63;;;16.03;71.14
11415;BME280;5763;42.714;23.244;2022-09-13T03:33:43;94363.56;;;15.99;71.10
11415;BME280;5763;42.714;23.244;2022-09-13T03:36:18;94366.81;;;15.97;70.79
11415;BME280;5763;42.714;23.244;2022-09-13T03:38:55;94367.34;;;16.01;70.64
11415;BME280;5763;42.714;23.244;2022-09-13T03:41:28;94369.31;;;15.95;71.18
11415;BME280;5763;42.714;23.244;2022-09-13T03:43:57;94368.81;;;15.97;70.85
11415;BME280;5763;42.714;23.244;2022-09-13T03:46:28;94376.59;;;15.98;71.16
11415;BME280;5763;42.714;23.244;2022-09-13T03:48:57;94372.34;;;15.97;70.60
11415;BME280;5763;42.714;23.244;2022-09-13T03:51:29;94370.53;;;15.89;70.89
11415;BME280;5763;42.714;23.244;2022-09-13T03:53:59;94375.56;;;15.90;70.83
11415;BME280;5763;42.714;23.244;2022-09-13T03:56:27;94373.06;;;15.92;70.80
11415;BME280;5763;42.714;23.244;2022-09-13T03:58:53;94369.22;;;15.84;70.90
11415;BME280;5763;42.714;23.244;2022-09-13T04:01:21;94375.50;;;15.85;70.55
11415;BME280;5763;42.714;23.244;2022-09-13T04:03:48;94376.47;;;15.82;70.74
11415;BME280;5763;42.714;23.244;2022-09-13T04:06:16;94382.53;;;15.86;70.15
11415;BME280;5763;42.714;23.244;2022-09-13T04:08:44;94380.00;;;15.82;69.94
11415;BME280;5763;42.714;23.244;2022-09-13T04:11:11;94382.75;;;15.82;69.99
11415;BME280;5763;42.714;23.244;2022-09-13T04:13:38;94381.78;;;15.85;69.80
11415;BME280;5763;42.714;23.244;2022-09-13T04:16:06;94369.44;;;15.75;70.27
11415;BME280;5763;42.714;23.244;2022-09-13T04:18:33;94374.47;;;15.77;70.23
11415;BME280;5763;42.714;23.244;2022-09-13T04:21:01;94375.91;;;15.72;70.34
11415;BME280;5763;42.714;23.244;2022-09-13T04:23:29;94377.25;;;15.82;70.21
11415;BME280;5763;42.714;23.244;2022-09-13T04:26:01;94386.81;;;15.87;69.70
11415;BME280;5763;42.714;23.244;2022-09-13T04:28:28;94386.53;;;15.85;69.56
11415;BME280;5763;42.714;23.244;2022-09-13T04:30:55;94381.78;;;15.85;69.40
11415;BME280;5763;42.714;23.244;2022-09-13T04:33:22;94385.56;;;15.88;69.48
11415;BME280;5763;42.714;23.244;2022-09-13T04:35:53;94385.59;;;15.93;69.01
11415;BME280;5763;42.714;23.244;2022-09-13T04:38:20;94397.19;;;15.97;68.92
11415;BME280;5763;42.714;23.244;2022-09-13T04:40:52;94402.44;;;15.95;68.62
11415;BME280;5763;42.714;23.244;2022-09-13T04:43:20;94405.19;;;15.95;68.83
11415;BME280;5763;42.714;23.244;2022-09-13T04:45:47;94403.22;;;16.01;68.26
11415;BME280;5763;42.714;23.244;2022-09-13T04:48:14;94400.91;;;15.94;68.82
11415;BME280;5763;42.714;23.244;2022-09-13T04:50:41;94402.69;;;15.97;68.56
11415;BME280;5763;42.714;23.244;2022-09-13T04:53:09;94398.97;;;16.00;68.30
11415;BME280;5763;42.714;23.244;2022-09-13T04:55:36;94406.25;;;16.03;68.11
11415;BME280;5763;42.714;23.244;2022-09-13T04:58:03;94413.06;;;16.08;68.24
11415;BME280;5763;42.714;23.244;2022-09-13T05:00:31;94407.31;;;16.11;68.59
11415;BME280;5763;42.714;23.244;2022-09-13T05:02:58;94412.56;;;16.09;68.59
11415;BME280;5763;42.714;23.244;2022-09-13T05:05:25;94410.25;;;16.02;69.35
11415;BME280;5763;42.714;23.244;2022-09-13T05:07:53;94409.06;;;16.09;69.09
11415;BME280;5763;42.714;23.244;2022-09-13T05:10:20;94409.31;;;16.11;69.27
11415;BME280;5763;42.714;23.244;2022-09-13T05:12:46;94409.91;;;16.26;69.39
11415;BME280;5763;42.714;23.244;2022-09-13T05:15:13;94410.44;;;16.30;69.43
11415;BME280;5763;42.714;23.244;2022-09-13T05:17:41;94410.28;;;16.44;69.09
11415;BME280;5763;42.714;23.244;2022-09-13T05:20:09;94407.97;;;16.37;68.58
11415;BME280;5763;42.714;23.244;2022-09-13T05:22:36;94400.00;;;16.45;68.70
11415;BME280;5763;42.714;23.244;2022-09-13T05:25:04;94406.06;;;16.49;68.56
11415;BME280;5763;42.714;23.244;2022-09-13T05:27:30;94407.34;;;16.53;68.32
11415;BME280;5763;42.714;23.244;2022-09-13T05:29:57;94408.59;;;16.52;68.37
11415;BME280;5763;42.714;23.244;2022-09-13T05:32:24;94408.53;;;16.47;68.98
11415;BME280;5763;42.714;23.244;2022-09-13T05:34:52;94410.28;;;16.44;69.51
11415;BME280;5763;42.714;23.244;2022-09-13T05:37:19;94416.06;;;16.41;70.24
11415;BME280;5763;42.714;23.244;2022-09-13T05:39:46;94415.56;;;16.48;69.87
11415;BME280;5763;42.714;23.244;2022-09-13T05:42:13;94412.25;;;16.38;70.44
11415;BME280;5763;42.714;23.244;2022-09-13T05:44:39;94402.00;;;16.44;69.88
11415;BME280;5763;42.714;23.244;2022-09-13T05:47:07;94415.84;;;16.50;69.54
11415;BME280;5763;42.714;23.244;2022-09-13T05:49:34;94415.13;;;16.55;69.19
11415;BME280;5763;42.714;23.244;2022-09-13T05:52:02;94414.06;;;16.47;69.50
11415;BME280;5763;42.714;23.244;2022-09-13T05:54:29;94419.34;;;16.45;69.86
11415;BME280;5763;42.714;23.244;2022-09-13T05:56:56;94418.09;;;16.46;69.43
11415;BME280;5763;42.714;23.244;2022-09-13T05:59:22;94412.59;;;16.52;69.60
11415;BME280;5763;42.714;23.244;2022-09-13T06:01:49;94415.06;;;16.44;70.00
11415;BME280;5763;42.714;23.244;2022-09-13T06:04:16;94413.09;;;16.55;69.17
11415;BME280;5763;42.714;23.244;2022-09-13T06:06:43;94414.41;;;16.60;69.07
11415;BME280;5763;42.714;23.244;2022-09-13T06:09:11;94410.88;;;16.59;68.69
11415;BME280;5763;42.714;23.244;2022-09-13T06:11:38;94414.94;;;16.69;68.88
11415;BME280;5763;42.714;23.244;2022-09-13T06:14:05;94414.72;;;16.78;69.09
11415;BME280;5763;42.714;23.244;2022-09-13T06:16:32;94407.91;;;16.74;68.56
11415;BME280;5763;42.714;23.244;2022-09-13T06:18:59;94421.81;;;16.85;67.92
11415;BME280;5763;42.714;23.244;2022-09-13T06:21:26;94427.81;;;16.89;67.73
11415;BME280;5763;42.714;23.244;2022-09-13T06:23:53;94423.09;;;17.00;66.50
11415;BME280;5763;42.714;23.244;2022-09-13T06:26:23;94429.69;;;17.08;66.96
11415;BME280;5763;42.714;23.244;2022-09-13T06:28:51;94421.13;;;17.17;66.61
11415;BME280;5763;42.714;23.244;2022-09-13T06:31:20;94433.50;;;17.27;66.51
11415;BME280;5763;42.714;23.244;2022-09-13T06:33:48;94425.97;;;17.28;67.28
11415;BME280;5763;42.714;23.244;2022-09-13T06:36:21;94435.31;;;17.42;67.38
11415;BME280;5763;42.714;23.244;2022-09-13T06:38:48;94430.53;;;17.48;67.31
11415;BME280;5763;42.714;23.244;2022-09-13T06:41:17;94424.53;;;17.55;67.15
11415;BME280;5763;42.714;23.244;2022-09-13T06:43:46;94439.13;;;17.61;66.95
11415;BME280;5763;42.714;23.244;2022-09-13T06:46:16;94440.38;;;17.65;65.41
11415;BME280;5763;42.714;23.244;2022-09-13T06:48:44;94440.88;;;17.63;65.36
11415;BME280;5763;42.714;23.244;2022-09-13T06:51:14;94442.41;;;17.65;65.75
11415;BME280;5763;42.714;23.244;2022-09-13T06:53:42;94448.44;;;17.58;63.87
11415;BME280;5763;42.714;23.244;2022-09-13T06:56:11;94441.13;;;17.55;64.02
11415;BME280;5763;42.714;23.244;2022-09-13T06:58:39;94448.19;;;17.67;63.78
11415;BME280;5763;42.714;23.244;2022-09-13T07:01:10;94448.94;;;17.73;63.37
11415;BME280;5763;42.714;23.244;2022-09-13T07:03:39;94451.00;;;17.83;63.38
11415;BME280;5763;42.714;23.244;2022-09-13T07:06:10;94458.25;;;17.75;63.74
11415;BME280;5763;42.714;23.244;2022-09-13T07:08:38;94447.44;;;17.83;62.76
11415;BME280;5763;42.714;23.244;2022-09-13T07:11:05;94455.50;;;17.92;62.95
11415;BME280;5763;42.714;23.244;2022-09-13T07:13:32;94455.53;;;18.08;61.23
11415;BME280;5763;42.714;23.244;2022-09-13T07:16:04;94459.81;;;18.09;60.79
11415;BME280;5763;42.714;23.244;2022-09-13T07:18:32;94473.41;;;18.13;60.77
11415;BME280;5763;42.714;23.244;2022-09-13T07:21:01;94464.31;;;18.17;61.06
11415;BME280;5763;42.714;23.244;2022-09-13T07:23:29;94456.28;;;18.31;60.75
11415;BME280;5763;42.714;23.244;2022-09-13T07:25:57;94464.09;;;18.38;61.37
11415;BME280;5763;42.714;23.244;2022-09-13T07:28:30;94458.53;;;18.43;61.08
11415;BME280;5763;42.714;23.244;2022-09-13T07:31:04;94465.06;;;18.46;60.52
11415;BME280;5763;42.714;23.244;2022-09-13T07:33:30;94463.31;;;18.48;59.90
11415;BME280;5763;42.714;23.244;2022-09-13T07:35:59;94453.22;;;18.51;59.51
11415;BME280;5763;42.714;23.244;2022-09-13T07:38:31;94468.84;;;18.65;58.98
11415;BME280;5763;42.714;23.244;2022-09-13T07:40:58;94460.25;;;18.74;56.92
11415;BME280;5763;42.714;23.244;2022-09-13T07:43:25;94468.53;;;18.85;57.89
11415;BME280;5763;42.714;23.244;2022-09-13T07:45:59;94470.53;;;18.90;57.87
11415;BME280;5763;42.714;23.244;2022-09-13T07:48:27;94470.78;;;18.97;56.08
11415;BME280;5763;42.714;23.244;2022-09-13T07:51:00;94480.31;;;19.02;55.27
11415;BME280;5763;42.714;23.244;2022-09-13T07:53:28;94471.97;;;19.13;55.11
11415;BME280;5763;42.714;23.244;2022-09-13T07:55:59;94471.69;;;19.27;55.82
11415;BME280;5763;42.714;23.244;2022-09-13T07:58:26;94481.75;;;19.36;56.18
11415;BME280;5763;42.714;23.244;2022-09-13T08:00:53;94472.13;;;19.42;55.75
11415;BME280;5763;42.714;23.244;2022-09-13T08:03:20;94474.56;;;19.57;54.63
11415;BME280;5763;42.714;23.244;2022-09-13T08:05:47;94472.97;;;19.72;53.92
11415;BME280;5763;42.714;23.244;2022-09-13T08:08:15;94473.63;;;19.84;53.34
11415;BME280;5763;42.714;23.244;2022-09-13T08:10:41;94478.59;;;20.02;51.48
11415;BME280;5763;42.714;23.244;2022-09-13T08:13:08;94470.59;;;20.22;51.33
11415;BME280;5763;42.714;23.244;2022-09-13T08:15:37;94473.44;;;20.46;49.31
11415;BME280;5763;42.714;23.244;2022-09-13T08:18:04;94474.16;;;20.52;48.30
11415;BME280;5763;42.714;23.244;2022-09-13T08:20:34;94467.41;;;20.72;47.37
11415;BME280;5763;42.714;23.244;2022-09-13T08:23:01;94458.97;;;20.77;48.75
11415;BME280;5763;42.714;23.244;2022-09-13T08:25:30;94459.09;;;20.66;47.39
11415;BME280;5763;42.714;23.244;2022-09-13T08:27:59;94459.50;;;20.76;47.32
11415;BME280;5763;42.714;23.244;2022-09-13T08:30:25;94460.13;;;20.93;47.44
11415;BME280;5763;42.714;23.244;2022-09-13T08:32:57;94459.56;;;21.18;45.29
11415;BME280;5763;42.714;23.244;2022-09-13T08:35:24;94456.94;;;21.26;47.42
11415;BME280;5763;42.714;23.244;2022-09-13T08:37:51;94455.63;;;21.08;47.61
11415;BME280;5763;42.714;23.244;2022-09-13T08:40:18;94457.13;;;21.09;46.29
11415;BME280;5763;42.714;23.244;2022-09-13T08:42:50;94450.25;;;21.34;46.73
11415;BME280;5763;42.714;23.244;2022-09-13T08:45:19;94446.38;;;21.80;45.27
11415;BME280;5763;42.714;23.244;2022-09-13T08:47:52;94442.75;;;22.03;38.48
11415;BME280;5763;42.714;23.244;2022-09-13T08:50:23;94410.22;;;21.56;39.01
11415;BME280;5763;42.714;23.244;2022-09-13T08:53:02;94439.94;;;21.48;41.36
11415;BME280;5763;42.714;23.244;2022-09-13T08:58:40;94448.63;;;20.78;42.88
11415;BME280;5763;42.714;23.244;2022-09-13T09:01:21;94445.94;;;21.15;41.93
11415;BME280;5763;42.714;23.244;2022-09-13T09:03:57;94448.84;;;21.65;41.05
11415;BME280;5763;42.714;23.244;2022-09-13T09:06:27;94440.69;;;22.04;38.54
11415;BME280;5763;42.714;23.244;2022-09-13T09:08:58;94442.72;;;22.35;38.04
11415;BME280;5763;42.714;23.244;2022-09-13T09:11:32;94446.88;;;22.60;35.50
11415;BME280;5763;42.714;23.244;2022-09-13T09:14:07;94451.97;;;22.87;37.05
11415;BME280;5763;42.714;23.244;2022-09-13T09:16:40;94446.38;;;22.74;36.71
11415;BME280;5763;42.714;23.244;2022-09-13T09:19:16;94448.41;;;22.42;37.26
11415;BME280;5763;42.714;23.244;2022-09-13T09:21:46;94444.09;;;22.60;38.53
11415;BME280;5763;42.714;23.244;2022-09-13T09:24:18;94445.00;;;22.94;39.13
11415;BME280;5763;42.714;23.244;2022-09-13T09:26:45;94442.41;;;22.83;39.25
11415;BME280;5763;42.714;23.244;2022-09-13T09:29:17;94438.63;;;22.54;39.78
11415;BME280;5763;42.714;23.244;2022-09-13T09:31:53;94445.03;;;22.18;38.80
11415;BME280;5763;42.714;23.244;2022-09-13T09:34:31;94444.72;;;21.90;41.17
11415;BME280;5763;42.714;23.244;2022-09-13T09:37:10;94443.00;;;21.68;42.07
11415;BME280;5763;42.714;23.244;2022-09-13T09:39:41;94427.09;;;21.45;43.07
11415;BME280;5763;42.714;23.244;2022-09-13T09:42:12;94429.47;;;21.35;42.13
11415;BME280;5763;42.714;23.244;2022-09-13T09:44:44;94434.06;;;21.14;42.78
11415;BME280;5763;42.714;23.244;2022-09-13T09:47:16;94431.59;;;21.29;39.92
11415;BME280;5763;42.714;23.244;2022-09-13T09:49:46;94431.44;;;21.40;40.81
11415;BME280;5763;42.714;23.244;2022-09-13T09:52:34;94431.44;;;21.22;39.99
11415;BME280;5763;42.714;23.244;2022-09-13T09:55:14;94429.56;;;21.11;41.99
11415;BME280;5763;42.714;23.244;2022-09-13T09:57:53;94416.31;;;21.17;42.85
11415;BME280;5763;42.714;23.244;2022-09-13T10:00:24;94413.50;;;20.99;43.21
11415;BME280;5763;42.714;23.244;2022-09-13T10:02:53;94413.91;;;20.84;43.05
11415;BME280;5763;42.714;23.244;2022-09-13T10:05:22;94413.75;;;20.77;44.46
11415;BME280;5763;42.714;23.244;2022-09-13T10:07:59;94405.63;;;21.03;43.41
11415;BME280;5763;42.714;23.244;2022-09-13T10:10:34;94394.34;;;21.51;40.14
11415;BME280;5763;42.714;23.244;2022-09-13T10:13:04;94395.03;;;22.07;39.38
11415;BME280;5763;42.714;23.244;2022-09-13T10:15:33;94397.81;;;22.07;38.82
11415;BME280;5763;42.714;23.244;2022-09-13T10:18:13;94392.00;;;21.92;39.71
11415;BME280;5763;42.714;23.244;2022-09-13T10:20:41;94393.75;;;22.52;39.45
11415;BME280;5763;42.714;23.244;2022-09-13T10:23:18;94398.41;;;22.89;37.78
11415;BME280;5763;42.714;23.244;2022-09-13T10:25:55;94392.53;;;23.65;36.65
11415;BME280;5763;42.714;23.244;2022-09-13T10:28:24;94396.47;;;24.03;37.29
11415;BME280;5763;42.714;23.244;2022-09-13T10:30:55;94398.81;;;24.12;36.88
11415;BME280;5763;42.714;23.244;2022-09-13T10:33:27;94395.75;;;24.43;35.08
11415;BME280;5763;42.714;23.244;2022-09-13T10:35:56;94387.03;;;24.75;33.85
11415;BME280;5763;42.714;23.244;2022-09-13T10:38:29;94385.91;;;25.06;32.37
11415;BME280;5763;42.714;23.244;2022-09-13T10:40:57;94388.25;;;25.50;30.89
11415;BME280;5763;42.714;23.244;2022-09-13T10:43:27;94382.72;;;25.88;29.74
11415;BME280;5763;42.714;23.244;2022-09-13T10:45:57;94387.09;;;25.46;30.29
11415;BME280;5763;42.714;23.244;2022-09-13T10:48:28;94383.44;;;24.95;31.24
11415;BME280;5763;42.714;23.244;2022-09-13T10:51:06;94380.81;;;24.41;32.39
11415;BME280;5763;42.714;23.244;2022-09-13T10:53:36;94373.38;;;24.02;33.19
11415;BME280;5763;42.714;23.244;2022-09-13T10:56:04;94372.53;;;23.61;34.95
11415;BME280;5763;42.714;23.244;2022-09-13T10:58:32;94371.13;;;23.34;36.54
11415;BME280;5763;42.714;23.244;2022-09-13T11:01:19;94366.34;;;23.42;36.38
11415;BME280;5763;42.714;23.244;2022-09-13T11:07:14;94361.03;;;24.95;32.25
11415;BME280;5763;42.714;23.244;2022-09-13T11:09:52;94367.88;;;25.57;31.53
11415;BME280;5763;42.714;23.244;2022-09-13T11:12:27;94364.81;;;25.91;30.03
11415;BME280;5763;42.714;23.244;2022-09-13T11:15:02;94360.84;;;25.71;28.74
11415;BME280;5763;42.714;23.244;2022-09-13T11:17:50;94358.47;;;25.98;29.37
11415;BME280;5763;42.714;23.244;2022-09-13T11:20:25;94354.38;;;26.21;28.22
11415;BME280;5763;42.714;23.244;2022-09-13T11:23:28;94359.66;;;26.40;28.33
11415;BME280;5763;42.714;23.244;2022-09-13T11:26:20;94351.97;;;26.70;27.03
11415;BME280;5763;42.714;23.244;2022-09-13T11:28:53;94352.16;;;26.72;27.57
11415;BME280;5763;42.714;23.244;2022-09-13T11:31:34;94347.66;;;26.32;28.31
11415;BME280;5763;42.714;23.244;2022-09-13T11:34:14;94349.91;;;26.03;28.38
11415;BME280;5763;42.714;23.244;2022-09-13T11:36:59;94344.59;;;25.77;29.74
11415;BME280;5763;42.714;23.244;2022-09-13T11:39:31;94337.19;;;26.10;29.16
11415;BME280;5763;42.714;23.244;2022-09-13T11:42:12;94343.00;;;26.57;28.82
11415;BME280;5763;42.714;23.244;2022-09-13T11:44:58;94336.19;;;27.05;29.94
11415;BME280;5763;42.714;23.244;2022-09-13T11:47:39;94339.91;;;27.62;26.98
11415;BME280;5763;42.714;23.244;2022-09-13T11:50:30;94346.25;;;27.70;26.69
11415;BME280;5763;42.714;23.244;2022-09-13T11:53:27;94346.03;;;27.75;26.50
11415;BME280;5763;42.714;23.244;2022-09-13T11:56:01;94345.00;;;27.56;27.17
11415;BME280;5763;42.714;23.244;2022-09-13T11:58:35;94354.34;;;27.04;28.65
11415;BME280;5763;42.714;23.244;2022-09-13T12:01:06;94348.97;;;26.83;27.21
11415;BME280;5763;42.714;23.244;2022-09-13T12:03:40;94343.53;;;26.10;27.29
11415;BME280;5763;42.714;23.244;2022-09-13T12:06:14;94336.06;;;26.05;27.62
11415;BME280;5763;42.714;23.244;2022-09-13T12:08:47;94343.16;;;26.36;28.27
11415;BME280;5763;42.714;23.244;2022-09-13T12:11:18;94334.50;;;27.02;28.23
11415;BME280;5763;42.714;23.244;2022-09-13T12:13:49;94346.78;;;27.36;26.99
11415;BME280;5763;42.714;23.244;2022-09-13T12:16:22;94337.84;;;27.15;27.58
11415;BME280;5763;42.714;23.244;2022-09-13T12:18:54;94341.28;;;26.91;28.19
11415;BME280;5763;42.714;23.244;2022-09-13T12:21:28;94337.09;;;27.07;26.96
11415;BME280;5763;42.714;23.244;2022-09-13T12:24:01;94339.75;;;27.05;26.27
11415;BME280;5763;42.714;23.244;2022-09-13T12:26:33;94338.25;;;27.04;26.77
11415;BME280;5763;42.714;23.244;2022-09-13T12:29:06;94337.00;;;27.45;26.99
11415;BME280;5763;42.714;23.244;2022-09-13T12:31:37;94337.09;;;27.62;26.69
11415;BME280;5763;42.714;23.244;2022-09-13T12:34:05;94337.97;;;27.72;26.40
11415;BME280;5763;42.714;23.244;2022-09-13T12:36:51;94334.16;;;27.92;26.51
11415;BME280;5763;42.714;23.244;2022-09-13T12:42:59;94339.59;;;28.71;25.95
11415;BME280;5763;42.714;23.244;2022-09-13T12:45:54;94333.94;;;28.71;24.51
11415;BME280;5763;42.714;23.244;2022-09-13T12:48:40;94334.94;;;28.66;24.35
11415;BME280;5763;42.714;23.244;2022-09-13T12:51:14;94332.97;;;28.51;25.27
11415;BME280;5763;42.714;23.244;2022-09-13T12:54:10;94323.81;;;28.19;26.32
11415;BME280;5763;42.714;23.244;2022-09-13T12:56:52;94334.31;;;27.54;28.05
11415;BME280;5763;42.714;23.244;2022-09-13T12:59:30;94328.72;;;27.47;27.71
11415;BME280;5763;42.714;23.244;2022-09-13T13:02:01;94333.34;;;27.59;27.23
11415;BME280;5763;42.714;23.244;2022-09-13T13:04:32;94330.84;;;27.39;28.08
11415;BME280;5763;42.714;23.244;2022-09-13T13:07:02;94339.38;;;26.94;28.68
11415;BME280;5763;42.714;23.244;2022-09-13T13:09:38;94338.31;;;26.82;26.87
11415;BME280;5763;42.714;23.244;2022-09-13T13:12:07;94329.97;;;27.14;26.73
11415;BME280;5763;42.714;23.244;2022-09-13T13:14:46;94335.47;;;27.51;27.08
11415;BME280;5763;42.714;23.244;2022-09-13T13:17:46;94338.97;;;27.12;28.23
11415;BME280;5763;42.714;23.244;2022-09-13T13:20:43;94332.13;;;26.83;29.93
11415;BME280;5763;42.714;23.244;2022-09-13T13:23:17;94340.66;;;25.88;30.50
11415;BME280;5763;42.714;23.244;2022-09-13T13:26:03;94341.41;;;25.23;31.25
11415;BME280;5763;42.714;23.244;2022-09-13T13:28:55;94329.22;;;25.63;30.78
11415;BME280;5763;42.714;23.244;2022-09-13T13:31:38;94329.88;;;26.07;30.27
11415;BME280;5763;42.714;23.244;2022-09-13T13:34:30;94329.34;;;26.38;27.85
11415;BME280;5763;42.714;23.244;2022-09-13T13:37:01;94342.06;;;26.77;27.47
11415;BME280;5763;42.714;23.244;2022-09-13T13:39:42;94332.34;;;26.63;28.19
11415;BME280;5763;42.714;23.244;2022-09-13T13:42:22;94340.34;;;26.81;29.71